KUIL/UIL METAR and TAF weather

Enter ICAO airport designator
Station Type Date Time Source
KUIL METAR 2019/05/19 20:53 UTC NOAA

KUIL 192053Z AUTO 27010KT 10SM OVC075 16/10 A2976 RMK AO2 SLP079 T01560100 53004


Station Type Date Time Source
KUIL Decoded METAR 2019/05/19 20:53 UTC NOAA

QUILLAYUTE STATE AIRPORT, WA, United States (KUIL) 47-56N 124-34W 54M
May 19, 2019 - 04:53 PM EDT / 2019.05.19 2053 UTC
Wind: from the W (270 degrees) at 12 MPH (10 KT):0
Visibility: 10 mile(s):0
Sky conditions: overcast
Temperature: 60.1 F (15.6 C)
Dew Point: 50.0 F (10.0 C)
Relative Humidity: 69%
Pressure (altimeter): 29.76 in. Hg (1007 hPa)
Pressure tendency: 0.01 inches (0.4 hPa) higher than three hours ago
ob: KUIL 192053Z AUTO 27010KT 10SM OVC075 16/10 A2976 RMK AO2 SLP079 T01560100 53004
cycle: 21

Station Type Date Time Source
KUIL TAF UTC NOAA

Error!

Example: see airport list